Data for 08/31/2007

Time Sea-Level Adjusted Pressure Absolute Pressure Temperature Relative Humidity Dew Point   
(mb) (inHg) (mb) (inHg) (C) (F) (%) (C) (F)
00:05 1020 30.12 849 25.07 21.9 71.3 32 4.8 40.7
00:10 1020 30.12 849 25.07 22 71.7 28 2.9 37.3
00:15 1020 30.12 849 25.07 21.6 70.9 31 3.9 39
00:20 1020 30.12 849 25.07 21 69.9 31 3.6 38.5
00:25 1020 30.12 849 25.07 20.9 69.6 32 3.7 38.7
00:30 1020 30.12 849 25.07 21.4 70.4 29 2.8 37.1
00:35 1020 30.12 849 25.07 21.2 70.1 33 4.7 40.4
00:40 1020 30.12 849 25.07 21 69.8 29 2.7 36.8
00:45 1020 30.12 849 25.07 21.3 70.3 32 3.9 39
00:50 1020 30.12 849 25.07 21.1 70.1 31 3.3 38
00:55 1020 30.12 849 25.07 20.9 69.6 30 2.8 37.1
01:00 1020 30.12 849 25.07 21.2 70.1 33 4.4 40
01:05 1020 30.12 849 25.07 21.4 70.5 29 2.7 36.9
01:10 1020 30.12 849 25.07 21.3 70.3 30 3.3 37.9
01:15 1020 30.12 850 25.1 21.1 69.9 30 2.9 37.2
01:20 1020 30.12 850 25.1 21 69.7 35 5.2 41.4
01:25 1020 30.12 850 25.1 21 69.7 30 2.8 37
01:30 1020 30.12 850 25.1 20.6 69 33 3.9 39.1
01:35 1020 30.12 850 25.1 20.3 68.5 32 3 37.4
01:40 1020 30.12 850 25.1 19.9 67.9 33 3.4 38.1
01:45 1020 30.12 850 25.1 19.8 67.7 33 3.4 38.1
01:50 1020 30.12 850 25.1 19.5 67 35 3.6 38.5
01:55 1020 30.12 850 25.1 20 68 29 1.6 34.9
02:00 1020 30.12 850 25.1 20.9 69.7 31 3.5 38.4
02:05 1020 30.12 850 25.1 19.7 67.4 41 6.1 43
02:10 1020 30.12 850 25.1 19.2 66.6 32 2.4 36.4
02:15 1020 30.12 850 25.1 19.7 67.4 33 3.3 37.9
02:20 1020 30.12 850 25.1 20.3 68.5 29 2 35.6
02:25 1020 30.12 850 25.1 20.6 69.1 29 2.3 36.2
02:30 1020 30.12 850 25.1 20.6 69.1 31 3.1 37.6
02:35 1020 30.12 850 25.1 20.1 68.1 34 3.8 38.8
02:40 1020 30.12 850 25.1 20.1 68.2 31 2.5 36.4
02:45 1021 30.15 850 25.1 19.9 67.7 33 3.2 37.8
02:50 1021 30.15 850 25.1 19.8 67.7 33 3.3 37.9
02:55 1021 30.15 850 25.1 20.1 68.2 32 2.9 37.2
03:00 1021 30.15 850 25.1 20 67.9 31 2.3 36.2
03:05 1021 30.15 850 25.1 19.6 67.3 33 3 37.5
03:10 1021 30.15 850 25.1 19.1 66.5 42 6.2 43.2
03:15 1021 30.15 850 25.1 19 66.2 37 4 39.2
03:20 1021 30.15 850 25.1 17.8 64.1 42 4.9 40.8
03:25 1021 30.15 850 25.1 17 62.6 43 4.6 40.3
03:30 1021 30.15 850 25.1 17 62.6 39 3 37.4
03:35 1021 30.15 850 25.1 17.9 64.2 40 4.2 39.5
03:40 1020 30.12 850 25.1 18.6 65.4 34 2.5 36.6
03:45 1020 30.12 850 25.1 18.7 65.6 35 3.2 37.7
03:50 1020 30.12 850 25.1 18.5 65.4 38 4.2 39.6
03:55 1020 30.12 850 25.1 17.7 63.9 44 5.5 41.9
04:00 1020 30.12 850 25.1 17.7 63.9 41 4.3 39.8
04:05 1020 30.12 850 25.1 17.8 64 42 4.7 40.5
04:10 1020 30.12 850 25.1 17.9 64.2 41 4.6 40.3
04:15 1020 30.12 850 25.1 17.7 63.9 38 3.5 38.3
04:20 1020 30.12 850 25.1 18 64.5 39 4 39.2
04:25 1020 30.12 849 25.07 17.9 64.2 40 4.1 39.4
04:30 1020 30.12 849 25.07 17.7 63.8 44 5.4 41.7
04:35 1020 30.12 849 25.07 17.4 63.3 40 3.7 38.7
04:40 1020 30.12 849 25.07 17.2 62.9 41 4.1 39.3
04:45 1020 30.12 849 25.07 17.1 62.8 40 3.6 38.5
04:50 1020 30.12 849 25.07 17.7 63.8 37 3 37.5
04:55 1020 30.12 849 25.07 18 64.3 38 3.7 38.6
05:00 1020 30.12 849 25.07 17.8 64 39 3.7 38.6
05:05 1020 30.12 849 25.07 17.9 64.1 38 3.6 38.5
05:10 1020 30.12 849 25.07 17.9 64.2 36 2.8 37
05:15 1020 30.12 849 25.07 18.4 65.1 35 2.8 37.1
05:20 1020 30.12 849 25.07 18.6 65.6 35 3 37.5
05:25 1020 30.12 849 25.07 18.1 64.6 40 4.6 40.3
05:30 1020 30.12 849 25.07 17.6 63.6 41 4.4 39.9
05:35 1020 30.12 849 25.07 17.9 64.1 41 4.4 39.9
05:40 1020 30.12 849 25.07 17.9 64.2 39 3.9 39.1
05:45 1020 30.12 849 25.07 17.9 64.2 40 4.4 39.9
05:50 1020 30.12 849 25.07 18.5 65.3 35 2.7 36.9
05:55 1020 30.12 849 25.07 19.3 66.8 37 4.4 39.9
06:00 1020 30.12 849 25.07 18.8 65.9 36 3.5 38.3
06:05 1020 30.12 849 25.07 19.4 66.9 34 3.3 38
06:10 1020 30.12 849 25.07 19.2 66.5 42 6 42.8
06:15 1020 30.12 849 25.07 19.1 66.3 37 4.2 39.6
06:20 1020 30.12 849 25.07 18.9 66 38 4.6 40.2
06:25 1020 30.12 849 25.07 18.1 64.6 42 5 41
06:30 1020 30.12 849 25.07 17.5 63.5 43 4.9 40.9
06:35 1020 30.12 850 25.1 17.4 63.3 42 4.4 39.9
06:40 1020 30.12 850 25.1 18.2 64.7 37 3.2 37.8
06:45 1020 30.12 849 25.07 18.7 65.6 36 3.5 38.3
06:50 1020 30.12 850 25.1 19 66.1 36 3.5 38.4
06:55 1020 30.12 850 25.1 18.3 65 43 5.6 42.1
07:00 1020 30.12 850 25.1 17.4 63.4 44 5.2 41.3
07:05 1020 30.12 850 25.1 16.9 62.4 39 3.1 37.6
07:10 1021 30.15 850 25.1 18.1 64.5 38 3.8 38.9
07:15 1021 30.15 850 25.1 17.6 63.7 42 4.6 40.3
07:20 1021 30.15 850 25.1 17.3 63.1 40 3.6 38.5
07:25 1021 30.15 850 25.1 17.7 63.8 39 3.7 38.7
07:30 1021 30.15 850 25.1 17.5 63.5 42 4.7 40.4
07:35 1021 30.15 850 25.1 17.2 63 42 4.3 39.7
07:40 1021 30.15 850 25.1 17.2 62.9 43 4.5 40.1
07:45 1021 30.15 850 25.1 17 62.5 44 4.8 40.6
07:50 1021 30.15 850 25.1 17.3 63.1 44 5.1 41.1
07:55 1021 30.15 850 25.1 17.7 63.9 41 4.3 39.8
08:00 1021 30.15 850 25.1 18.4 65 36 3.2 37.8
08:05 1021 30.15 850 25.1 19.2 66.5 35 3.6 38.4
08:10 1021 30.15 850 25.1 18.3 64.9 46 6.7 44
08:15 1021 30.15 850 25.1 17.4 63.4 47 6.1 42.9
08:20 1021 30.15 850 25.1 17.3 63.1 46 5.6 42
08:25 1021 30.15 850 25.1 17.2 63 43 4.7 40.4
08:30 1021 30.15 850 25.1 17.7 63.8 42 4.7 40.5
08:35 1021 30.15 851 25.13 17.9 64.2 45 6 42.8
08:40 1021 30.15 851 25.13 18.1 64.6 42 5 41.1
08:45 1022 30.18 851 25.13 18 64.3 44 5.5 42
08:50 1022 30.18 851 25.13 17.7 63.8 46 5.9 42.6
08:55 1022 30.18 851 25.13 17.8 64 43 5.1 41.1
09:00 1022 30.18 851 25.13 18.2 64.7 42 5.3 41.5
09:05 1022 30.18 851 25.13 18.5 65.3 42 5.3 41.5
09:10 1022 30.18 851 25.13 18.7 65.6 40 4.8 40.6
09:15 1022 30.18 851 25.13 18.8 65.9 39 4.7 40.4
09:20 1022 30.18 851 25.13 18.9 66.1 51 8.7 47.6
09:25 1022 30.18 851 25.13 19.2 66.6 38 4.7 40.5
09:30 1022 30.18 851 25.13 20.4 68.6 34 4.3 39.8
09:35 1022 30.18 851 25.13 21.1 70 37 5.9 42.7
09:40 1022 30.18 851 25.13 21.8 71.3 38 6.9 44.3
09:45 1022 30.18 851 25.13 21.9 71.5 41 8.4 47.1
09:50 1022 30.18 851 25.13 21.5 70.7 41 7.7 45.9
09:55 1022 30.18 851 25.13 22.1 71.8 40 7.9 46.3
10:00 1022 30.18 851 25.13 21.9 71.3 39 7.7 45.8
10:05 1022 30.18 851 25.13 22.1 71.7 37 6.8 44.2
10:10 1022 30.18 851 25.13 22.5 72.6 37 7.3 45.2
10:15 1022 30.18 851 25.13 22.5 72.4 37 7.3 45.2
10:20 1022 30.18 851 25.13 22.4 72.3 37 7.2 44.9
10:25 1022 30.18 851 25.13 22.4 72.3 37 7.3 45.2
10:30 1022 30.18 851 25.13 22.3 72.2 38 7.3 45.2
10:35 1022 30.18 851 25.13 22.5 72.5 37 7.1 44.8
10:40 1021 30.15 851 25.13 22.7 72.9 36 7.2 44.9
10:45 1022 30.18 851 25.13 22.9 73.1 36 7.2 45
10:50 1022 30.18 851 25.13 23.1 73.6 35 7.2 45
10:55 1022 30.18 851 25.13 23.4 74.2 35 7.2 45
11:00 1022 30.18 851 25.13 23.5 74.3 35 7.4 45.2
11:05 1022 30.18 851 25.13 23.7 74.6 35 7.6 45.6
11:10 1022 30.18 851 25.13 23.8 74.8 35 7.7 45.8
11:15 1021 30.15 851 25.13 24 75.1 35 7.6 45.6
11:20 1021 30.15 851 25.13 24.2 75.5 36 8.5 47.3
11:25 1021 30.15 851 25.13 24.2 75.6 36 8.2 46.8
11:30 1021 30.15 850 25.1 24.6 76.3 35 8.5 47.3
11:35 1021 30.15 850 25.1 24.4 75.8 36 8.7 47.6
11:40 1021 30.15 850 25.1 24.2 75.6 37 8.7 47.7
11:45 1021 30.15 850 25.1 24.3 75.8 37 8.9 48.1
11:50 1021 30.15 850 25.1 24.5 76.1 36 8.8 47.9
11:55 1021 30.15 850 25.1 24.9 76.8 35 8.5 47.3
12:00 1021 30.15 850 25.1 25 76.9 35 8.5 47.3
12:05 1021 30.15 850 25.1 25.1 77.2 35 8.7 47.6
12:10 1021 30.15 850 25.1 24.7 76.4 34 8 46.4
12:15 1021 30.15 850 25.1 25 77 33 8 46.5
12:20 1021 30.15 850 25.1 25.3 77.5 34 8.5 47.2
12:25 1021 30.15 850 25.1 25.3 77.5 32 7.7 45.9
12:30 1021 30.15 850 25.1 26.1 78.9 30 7.4 45.3
12:35 1021 30.15 850 25.1 27.2 80.9 29 7.7 45.9
12:40 1021 30.15 850 25.1 27.4 81.3 29 7.9 46.2
12:45 1020 30.12 850 25.1 27.3 81.1 28 7.6 45.7
12:50 1020 30.12 850 25.1 27.2 81 29 8 46.4
12:55 1020 30.12 850 25.1 27.5 81.6 28 7.6 45.7
13:00 1020 30.12 850 25.1 27.4 81.3 28 7.8 46
13:05 1020 30.12 850 25.1 26.8 80.3 29 7.8 46
13:10 1020 30.12 850 25.1 26.4 79.4 30 7.8 46.1
13:15 1020 30.12 850 25.1 26.4 79.6 29 7.4 45.4
13:20 1020 30.12 849 25.07 26.8 80.2 29 7.4 45.3
13:25 1020 30.12 849 25.07 26.6 79.9 29 7.2 44.9
13:30 1020 30.12 849 25.07 27.1 80.7 29 7.9 46.2
13:35 1020 30.12 849 25.07 26.8 80.3 29 7.6 45.6
13:40 1020 30.12 849 25.07 26.6 79.9 30 7.8 46
13:45 1020 30.12 849 25.07 26.2 79.1 30 7.7 45.8
13:50 1020 30.12 849 25.07 26.2 79.1 30 7.5 45.4
13:55 1020 30.12 849 25.07 26.4 79.5 30 7.8 46
14:00 1020 30.12 849 25.07 26.4 79.5 30 7.9 46.2
14:05 1020 30.12 849 25.07 26.5 79.6 30 8 46.3
14:10 1020 30.12 849 25.07 26.4 79.5 30 7.6 45.7
14:15 1020 30.12 849 25.07 26.3 79.3 30 7.6 45.7
14:20 1020 30.12 849 25.07 26.3 79.4 31 8 46.4
14:25 1020 30.12 849 25.07 26.3 79.4 32 8.8 47.8
14:30 1020 30.12 849 25.07 26.4 79.5 31 8.1 46.7
14:35 1020 30.12 849 25.07 26.3 79.4 31 7.9 46.3
14:40 1020 30.12 849 25.07 26.2 79.1 31 8.1 46.6
14:45 1020 30.12 849 25.07 26.3 79.3 33 9 48.2
14:50 1020 30.12 849 25.07 26.2 79.2 31 8.2 46.8
14:55 1020 30.12 849 25.07 26.3 79.3 32 8.5 47.3
15:00 1020 30.12 849 25.07 26.5 79.6 31 8 46.4
15:05 1020 30.12 849 25.07 26.4 79.5 31 8 46.4
15:10 1020 30.12 849 25.07 26.3 79.3 32 8.4 47.1
15:15 1020 30.12 849 25.07 26.2 79.2 32 8.3 47
15:20 1020 30.12 849 25.07 26.1 79 35 9.6 49.3
15:25 1020 30.12 849 25.07 25 76.9 37 9.5 49
15:30 1020 30.12 849 25.07 24.7 76.5 37 9.2 48.6
15:35 1020 30.12 849 25.07 24.8 76.6 36 8.9 48.1
15:40 1020 30.12 849 25.07 25 77.1 38 10 50
15:45 1020 30.12 849 25.07 25.6 78 35 9.1 48.3
15:50 1020 30.12 849 25.07 25.3 77.5 35 9 48.1
15:55 1020 30.12 849 25.07 25.6 78.1 34 9 48.1
16:00 1020 30.12 849 25.07 25.4 77.6 32 7.6 45.6
16:05 1020 30.12 849 25.07 25.6 78 33 8.2 46.8
16:10 1020 30.12 849 25.07 25.8 78.5 31 7.6 45.6
16:15 1020 30.12 849 25.07 26.2 79.2 31 8.1 46.6
16:20 1020 30.12 849 25.07 26.3 79.3 34 9.6 49.3
16:25 1019 30.09 849 25.07 25.3 77.5 35 9.2 48.5
16:30 1019 30.09 849 25.07 25.1 77.1 37 9.5 49.1
16:35 1019 30.09 849 25.07 25 76.9 38 9.9 49.9
16:40 1019 30.09 849 25.07 24.9 76.7 35 8.7 47.6
16:45 1019 30.09 849 25.07 24.8 76.6 39 10.1 50.1
16:50 1019 30.09 849 25.07 24.7 76.4 43 11.5 52.6
16:55 1019 30.09 849 25.07 24.1 75.5 48 12.6 54.6
17:00 1019 30.09 849 25.07 23.7 74.7 45 11.2 52.2
17:05 1019 30.09 848 25.04 23.3 74 52 13 55.4
17:10 1019 30.09 848 25.04 22.9 73.3 52 12.8 55
17:15 1019 30.09 848 25.04 23.1 73.6 54 13.5 56.4
17:20 1019 30.09 849 25.07 23.6 74.4 52 13.4 56.2
17:25 1019 30.09 849 25.07 24.1 75.3 46 12 53.7
17:30 1019 30.09 848 25.04 24.6 76.2 40 10.4 50.7
17:35 1019 30.09 848 25.04 24.8 76.7 42 11.3 52.3
17:40 1019 30.09 848 25.04 25.1 77.2 35 9 48.2
17:45 1019 30.09 848 25.04 25.4 77.7 40 11.2 52.1
17:50 1019 30.09 848 25.04 25.2 77.3 37 9.8 49.6
17:55 1019 30.09 848 25.04 24.6 76.2 39 10.1 50.1
18:00 1019 30.09 848 25.04 24 75.2 43 10.9 51.6
18:05 1019 30.09 848 25.04 23.7 74.7 41 9.8 49.6
18:10 1019 30.09 848 25.04 23.7 74.7 40 9.7 49.5
18:15 1019 30.09 848 25.04 23.9 75 40 9.8 49.7
18:20 1019 30.09 848 25.04 24 75.3 37 8.7 47.7
18:25 1019 30.09 848 25.04 24.2 75.5 37 8.8 47.8
18:30 1019 30.09 848 25.04 24.3 75.7 36 8.6 47.5
18:35 1019 30.09 848 25.04 24.3 75.8 35 8.1 46.5
18:40 1019 30.09 848 25.04 24.4 75.9 38 9.4 48.9
18:45 1019 30.09 848 25.04 24.4 76 43 11.1 52
18:50 1019 30.09 848 25.04 23.8 74.8 47 12 53.5
18:55 1019 30.09 848 25.04 23.3 73.9 50 12.4 54.3
19:00 1019 30.09 848 25.04 22.9 73.2 48 11.5 52.7
19:05 1019 30.09 848 25.04 23 73.4 48 11.5 52.6
19:10 1019 30.09 848 25.04 23 73.4 50 12.3 54.2
19:15 1019 30.09 848 25.04 22.9 73.2 47 11.3 52.3
19:20 1019 30.09 848 25.04 22.7 72.8 47 10.9 51.7
19:25 1019 30.09 848 25.04 22.3 72.1 49 11.2 52.2
19:30 1019 30.09 848 25.04 22 71.6 47 10.4 50.7
19:35 1019 30.09 848 25.04 21.9 71.5 50 11.1 52
19:40 1019 30.09 848 25.04 22 71.6 46 10 49.9
19:45 1019 30.09 848 25.04 22 71.6 45 9.9 49.7
19:50 1019 30.09 848 25.04 22 71.7 45 9.6 49.3
19:55 1019 30.09 848 25.04 22.1 71.8 45 9.6 49.4
20:00 1019 30.09 848 25.04 22.1 71.7 44 9.3 48.7
20:05 1019 30.09 848 25.04 21.9 71.5 49 11 51.8
20:10 1019 30.09 848 25.04 21.8 71.2 47 10 50
20:15 1019 30.09 848 25.04 21.6 70.9 45 9.3 48.7
20:20 1019 30.09 848 25.04 21.3 70.3 45 9.1 48.5
20:25 1019 30.09 848 25.04 21.4 70.5 42 8.3 46.9
20:30 1019 30.09 848 25.04 21.7 71 41 8 46.3
20:35 1019 30.09 848 25.04 21.9 71.4 41 8.3 47
20:40 1019 30.09 848 25.04 21.8 71.2 44 9 48.2
20:45 1019 30.09 848 25.04 21.4 70.4 45 9.1 48.4
20:50 1019 30.09 848 25.04 21.2 70.2 47 9.6 49.3
20:55 1019 30.09 849 25.07 21.1 69.9 47 9.3 48.8
21:00 1019 30.09 849 25.07 20.8 69.4 48 9.5 49
21:05 1019 30.09 849 25.07 20.5 69 49 9.6 49.3
21:10 1019 30.09 849 25.07 20.3 68.5 50 9.8 49.6
21:15 1019 30.09 849 25.07 20.2 68.4 51 9.8 49.6
21:20 1019 30.09 849 25.07 20 68 51 9.8 49.7
21:25 1019 30.09 849 25.07 19.8 67.7 52 9.9 49.7
21:30 1019 30.09 849 25.07 19.7 67.5 53 9.9 49.8
21:35 1019 30.09 849 25.07 19.6 67.2 53 9.9 49.9
21:40 1019 30.09 849 25.07 19.5 67.2 53 9.9 49.7
21:45 1019 30.09 849 25.07 19.4 66.9 54 10 50
21:50 1019 30.09 849 25.07 19.2 66.5 55 10.1 50.1
21:55 1019 30.09 849 25.07 19.1 66.3 55 9.9 49.7
22:00 1019 30.09 848 25.04 19 66.2 55 9.8 49.6
22:05 1019 30.09 848 25.04 18.9 66.1 55 9.7 49.4
22:10 1019 30.09 849 25.07 18.9 66.1 54 9.6 49.4
22:15 1019 30.09 849 25.07 18.9 65.9 54 9.5 49.1
22:20 1019 30.09 849 25.07 18.9 66 54 9.5 49.2
22:25 1019 30.09 849 25.07 18.8 65.9 54 9.6 49.2
22:30 1019 30.09 849 25.07 18.7 65.7 55 9.5 49.1
22:35 1019 30.09 849 25.07 18.6 65.4 61 11 51.8
22:40 1019 30.09 849 25.07 18.3 65 58 9.9 49.8
22:45 1019 30.09 849 25.07 18 64.4 58 9.7 49.4
22:50 1019 30.09 848 25.04 17.9 64.2 58 9.5 49.1
22:55 1019 30.09 849 25.07 18 64.4 56 9.3 48.7
23:00 1019 30.09 848 25.04 18.4 65.1 55 9.3 48.7
23:05 1019 30.09 848 25.04 18.5 65.4 56 9.6 49.3
23:10 1019 30.09 848 25.04 18.3 64.9 56 9.5 49.1
23:15 1019 30.09 848 25.04 18.2 64.8 56 9.3 48.7
23:20 1019 30.09 848 25.04 18.1 64.6 57 9.5 49.1
23:25 1019 30.09 848 25.04 17.9 64.2 57 9.4 49
23:30 1019 30.09 848 25.04 18 64.3 57 9.4 48.9
23:35 1019 30.09 848 25.04 17.9 64.2 58 9.5 49.1
23:40 1019 30.09 848 25.04 17.7 63.9 58 9.5 49.1
23:45 1019 30.09 848 25.04 17.6 63.7 58 9.4 49
23:50 1019 30.09 848 25.04 17.7 63.9 58 9.5 49.1
23:55 1019 30.09 848 25.04 17.6 63.7 58 9.4 49
24:00 1019 30.09 849 25.07 17.6 63.6 58 9.4 48.9